Date,TemperatureHighF,TemperatureAvgF,TemperatureLowF,DewpointHighF,DewpointAvgF,DewpointLowF,HumidityHigh,HumidityAvg,HumidityLow,PressureMaxIn,PressureMinIn,WindSpeedMaxMPH,WindSpeedAvgMPH,GustSpeedMaxMPH,PrecipitationSumIn
2013-3-1,35,32,30,30,28,23,96,82,70,0.00,40.00,6,4,12,0.00
2013-3-2,32,30,27,30,27,23,99,91,75,0.00,40.00,7,5,17,0.04
2013-3-3,34,28,21,23,18,13,96,68,49,0.00,40.00,8,5,20,0.13
2013-3-4,53,35,19,31,20,15,86,59,30,0.00,40.00,5,3,9,0.02
2013-3-5,56,48,33,53,42,26,95,81,46,0.00,40.00,15,11,30,0.57
2013-3-6,33,30,27,27,24,18,94,79,63,0.00,40.00,11,8,27,0.01
2013-3-7,40,33,29,28,27,25,94,79,60,0.00,40.00,8,6,16,0.00
2013-3-8,53,36,22,29,23,17,95,65,26,0.00,40.00,8,4,16,0.00
2013-3-9,58,46,32,30,26,23,71,48,31,0.00,40.00,6,4,13,0.00
2013-3-10,67,58,51,35,29,27,44,35,23,0.00,40.00,15,10,27,0.00
2013-3-11,60,54,42,52,48,35,100,79,44,0.00,40.00,20,11,36,1.04
2013-3-12,52,41,34,42,32,26,100,71,40,0.00,40.00,8,6,18,0.36
2013-3-13,44,39,29,29,22,16,66,52,38,0.00,40.00,11,6,23,0.00
2013-3-14,48,33,23,33,16,13,91,53,26,0.00,40.00,9,5,22,0.00
2013-3-15,69,50,30,41,35,29,98,62,34,0.00,40.00,10,6,21,0.01
2013-3-16,73,64,56,46,42,38,55,45,34,0.00,40.00,12,10,25,0.01
2013-3-17,67,62,55,52,46,42,75,57,44,0.00,40.00,12,8,21,0.00
2013-3-18,59,55,48,56,51,46,100,85,69,0.00,40.00,16,9,26,0.76
2013-3-19,56,48,38,50,30,8,100,56,23,0.00,40.00,10,6,22,0.26
2013-3-20,53,43,35,28,14,2,75,33,14,0.00,40.00,10,6,22,0.00
2013-3-21,40,30,20,28,12,7,82,48,29,0.00,40.00,8,5,20,0.00
2013-3-22,44,35,26,28,17,10,62,47,32,0.00,40.00,4,2,8,0.00
2013-3-23,51,44,38,46,40,28,98,88,61,0.00,40.00,6,3,15,0.14
2013-3-24,60,50,39,53,47,29,100,88,65,0.00,40.00,14,8,30,1.32
2013-3-25,39,32,29,29,22,19,74,67,59,0.00,40.00,12,9,26,0.06
2013-3-26,35,30,27,28,25,21,92,80,61,0.00,40.00,8,5,22,0.02
2013-3-27,48,35,28,26,24,19,86,66,33,0.00,40.00,8,5,16,0.02
2013-3-28,56,50,41,29,26,24,54,39,33,0.00,40.00,8,5,16,0.00
2013-3-29,52,42,32,36,27,20,68,56,37,0.00,40.00,5,2,10,0.00
2013-3-30,62,51,39,51,42,35,100,74,46,0.00,40.00,9,3,14,0.25
2013-3-31,59,55,51,57,51,-100,100,94,72,0.00,40.00,10,7,22,0.74